Buoy 21539

sailwx.info

Track history (hours):
 
Tides and Currents Weather Stations Pressure Air Temp Water Temp Dewpoint Dewpoint Depression Visibility Wind Speed Wind Dir Waves Ship Positions

Drifting buoy 21539

Last reported at 2015-Jul-31 22:10 UTC. Time now 2015-Aug-01 03:34 UTC.
Position N 47°14' W 171°22'.

Barometer 1012.9 mb
Water temperature 11.0 ° C

Date/timePositionNaut miles runAvg speedWind from/ knotsBaromVisibWave heightAir tempDewpointWater temp
2015-Jul-31 22:10N 47°14' W 171°22'2 0.4 1012.9 11.0
2015-Jul-31 18:10N 47°15' W 171°24'1 1.3 1013.7 10.8
2015-Jul-31 17:10N 47°14' W 171°25'0 0.2 1013.5 10.8
2015-Jul-31 16:10N 47°14' W 171°26'3 0.8 1013.2 10.8
2015-Jul-31 13:10N 47°15' W 171°22'4 0.4 1012.6 10.8
2015-Jul-31 05:10N 47°17' W 171°27'2 0.2 1013.8 10.9
2015-Jul-30 19:10N 47°18' W 171°25'3 0.6 1013.0 10.6
2015-Jul-30 14:10N 47°18' W 171°29'1 0.1 1012.8 11.2
2015-Jul-30 06:10N 47°17' W 171°28'1 0.1 1015.5 11.5
2015-Jul-30 01:10N 47°18' W 171°28'2 0.4 1016.5 11.6
2015-Jul-29 20:10N 47°19' W 171°29'2 0.5 1017.5 11.2
2015-Jul-29 17:10N 47°19' W 171°32'1 0.8 1017.2 11.1
2015-Jul-29 16:10N 47°18' W 171°32'1 0.5 1017.1 11.1
2015-Jul-29 14:10N 47°18' W 171°31'3 0.8 1017.3 11.1
2015-Jul-29 11:10N 47°19' W 171°27'2 0.5 1018.4 11.1
2015-Jul-29 08:10N 47°20' W 171°27'2 0.8 1018.9 11.4
2015-Jul-29 05:10N 47°22' W 171°30'2 0.6 1018.5 11.6
2015-Jul-29 02:10N 47°20' W 171°32'1 1.2 1018.7 11.6
2015-Jul-29 01:10N 47°19' W 171°31'4 0.4 1018.9 11.4
2015-Jul-28 15:10N 47°24' W 171°31'0 0.2 1018.6 10.4
2015-Jul-28 13:10N 47°23' W 171°31'1 0.7 1019.2 10.5
2015-Jul-28 11:10N 47°23' W 171°32'0 0.2 1019.9 10.5
2015-Jul-28 09:10N 47°23' W 171°32'1 0.1 1021.2 10.6
2015-Jul-27 20:10N 47°23' W 171°33'2 0.1 1025.3 10.0
2015-Jul-27 02:10N 47°25' W 171°33'1 0.4 1027.2 10.1
2015-Jul-26 23:10N 47°24' W 171°32'1 0.7 1027.0 9.9
2015-Jul-26 22:10N 47°25' W 171°32'0 0.0 1027.0 9.8
2015-Jul-26 21:10N 47°25' W 171°32'1 1.3 1026.6 9.7
2015-Jul-26 20:10N 47°24' W 171°30'0 0.2 1026.4 9.7
2015-Jul-26 18:10N 47°24' W 171°29'1 1.3 1025.6 9.5
2015-Jul-26 17:10N 47°25' W 171°30'1 0.8 1025.1 9.5
2015-Jul-26 16:10N 47°26' W 171°30'2 2.1 1024.5 9.5
2015-Jul-26 15:10N 47°27' W 171°31'0 0.0 1024.0 9.5
2015-Jul-26 14:10N 47°27' W 171°31'1 0.7 1024.2 9.5
2015-Jul-26 12:10N 47°27' W 171°33'0 0.0 1023.8 9.5
2015-Jul-26 11:10N 47°27' W 171°33'1 0.2 1024.0 9.5
2015-Jul-26 07:10N 47°26' W 171°34'0 0.0 1023.8 9.5
2015-Jul-26 05:10N 47°26' W 171°34'1 1.1 1023.9 9.6
2015-Jul-26 04:10N 47°27' W 171°35'0 0.0 1024.4 9.5
2015-Jul-26 03:10N 47°27' W 171°35'1 1.0 1025.0 9.6
2015-Jul-26 02:10N 47°27' W 171°34'1 1.2 1025.4 9.5
2015-Jul-26 01:10N 47°27' W 171°35'1 1.1 1025.6 9.5
2015-Jul-26 00:10N 47°26' W 171°34'2 1.2 1025.9 9.5
2015-Jul-25 22:10N 47°28' W 171°36'1 0.5 1026.6 9.5
2015-Jul-25 20:10N 47°28' W 171°37'2 0.2 1027.2 9.4
2015-Jul-25 09:10N 47°27' W 171°40'0 0.1 1029.1 9.5
2015-Jul-25 08:10N 47°27' W 171°40'0 0.3 1028.9 9.5
2015-Jul-25 07:10N 47°27' W 171°39'1 0.6 1028.9 9.5
2015-Jul-25 06:10N 47°27' W 171°39'2 0.8 1028.8 9.5
2015-Jul-25 04:10N 47°28' W 171°40'1 1.0 1029.3 9.5
2015-Jul-25 03:10N 47°29' W 171°40'1 0.9 1029.3 9.5
2015-Jul-25 02:10N 47°29' W 171°42'2 1.7 1029.7 9.5
2015-Jul-25 01:10N 47°27' W 171°42'1 0.1 1030.2 9.5
2015-Jul-24 16:10N 47°27' W 171°41'7 0.3 1028.6 9.2
2015-Jul-23 16:10N 47°26' W 171°51'1 0.6 1027.4 9.2
2015-Jul-23 15:10N 47°26' W 171°50'2 0.3 1027.5 9.2
2015-Jul-23 09:10N 47°26' W 171°53'1 0.2 1029.8 9.2
2015-Jul-23 06:10N 47°26' W 171°52'1 0.7 1028.7 9.3
2015-Jul-23 04:10N 47°27' W 171°54'0 0.3 1028.8 9.3
2015-Jul-23 03:10N 47°27' W 171°54'1 0.2 1028.8 9.2
2015-Jul-22 23:10N 47°26' W 171°54'0 0.0 1029.1 9.1
2015-Jul-22 22:10N 47°26' W 171°54'0 0.0 1029.1 9.1
2015-Jul-22 18:10N 47°26' W 171°54'1 1.1 1028.0 9.0
2015-Jul-22 17:10N 47°26' W 171°53'4 1.0 1027.8 9.0
2015-Jul-22 13:10N 47°28' W 171°58'0 0.0 1026.7 9.0
2015-Jul-22 08:10N 47°28' W 171°59'1 0.5 1025.5 9.1
2015-Jul-22 05:10N 47°26' W 171°58'   1023.1 9.1
Track history (hours):
 
Tides and Currents Weather Stations Pressure Air Temp Water Temp Dewpoint Dewpoint Depression Visibility Wind Speed Wind Dir Waves Ship Positions

Drifting buoy 21539

Last reported at 2015-Jul-31 22:10 UTC. Time now 2015-Aug-01 03:34 UTC.
Position N 47°14' W 171°22'.

Barometer 1012.9 mb
Water temperature 11.0 ° C

Date/timePositionNaut miles runAvg speedWind from/ knotsBaromVisibWave heightAir tempDewpointWater temp
2015-Jul-31 22:10N 47°14' W 171°22'2 0.4 1012.9 11.0
2015-Jul-31 18:10N 47°15' W 171°24'1 1.3 1013.7 10.8
2015-Jul-31 17:10N 47°14' W 171°25'0 0.2 1013.5 10.8
2015-Jul-31 16:10N 47°14' W 171°26'3 0.8 1013.2 10.8
2015-Jul-31 13:10N 47°15' W 171°22'4 0.4 1012.6 10.8
2015-Jul-31 05:10N 47°17' W 171°27'2 0.2 1013.8 10.9
2015-Jul-30 19:10N 47°18' W 171°25'3 0.6 1013.0 10.6
2015-Jul-30 14:10N 47°18' W 171°29'1 0.1 1012.8 11.2
2015-Jul-30 06:10N 47°17' W 171°28'1 0.1 1015.5 11.5
2015-Jul-30 01:10N 47°18' W 171°28'2 0.4 1016.5 11.6
2015-Jul-29 20:10N 47°19' W 171°29'2 0.5 1017.5 11.2
2015-Jul-29 17:10N 47°19' W 171°32'1 0.8 1017.2 11.1
2015-Jul-29 16:10N 47°18' W 171°32'1 0.5 1017.1 11.1
2015-Jul-29 14:10N 47°18' W 171°31'3 0.8 1017.3 11.1
2015-Jul-29 11:10N 47°19' W 171°27'2 0.5 1018.4 11.1
2015-Jul-29 08:10N 47°20' W 171°27'2 0.8 1018.9 11.4
2015-Jul-29 05:10N 47°22' W 171°30'2 0.6 1018.5 11.6
2015-Jul-29 02:10N 47°20' W 171°32'1 1.2 1018.7 11.6
2015-Jul-29 01:10N 47°19' W 171°31'4 0.4 1018.9 11.4
2015-Jul-28 15:10N 47°24' W 171°31'0 0.2 1018.6 10.4
2015-Jul-28 13:10N 47°23' W 171°31'1 0.7 1019.2 10.5
2015-Jul-28 11:10N 47°23' W 171°32'0 0.2 1019.9 10.5
2015-Jul-28 09:10N 47°23' W 171°32'1 0.1 1021.2 10.6
2015-Jul-27 20:10N 47°23' W 171°33'2 0.1 1025.3 10.0
2015-Jul-27 02:10N 47°25' W 171°33'1 0.4 1027.2 10.1
2015-Jul-26 23:10N 47°24' W 171°32'1 0.7 1027.0 9.9
2015-Jul-26 22:10N 47°25' W 171°32'0 0.0 1027.0 9.8
2015-Jul-26 21:10N 47°25' W 171°32'1 1.3 1026.6 9.7
2015-Jul-26 20:10N 47°24' W 171°30'0 0.2 1026.4 9.7
2015-Jul-26 18:10N 47°24' W 171°29'1 1.3 1025.6 9.5
2015-Jul-26 17:10N 47°25' W 171°30'1 0.8 1025.1 9.5
2015-Jul-26 16:10N 47°26' W 171°30'2 2.1 1024.5 9.5
2015-Jul-26 15:10N 47°27' W 171°31'0 0.0 1024.0 9.5
2015-Jul-26 14:10N 47°27' W 171°31'1 0.7 1024.2 9.5
2015-Jul-26 12:10N 47°27' W 171°33'0 0.0 1023.8 9.5
2015-Jul-26 11:10N 47°27' W 171°33'1 0.2 1024.0 9.5
2015-Jul-26 07:10N 47°26' W 171°34'0 0.0 1023.8 9.5
2015-Jul-26 05:10N 47°26' W 171°34'1 1.1 1023.9 9.6
2015-Jul-26 04:10N 47°27' W 171°35'0 0.0 1024.4 9.5
2015-Jul-26 03:10N 47°27' W 171°35'1 1.0 1025.0 9.6
2015-Jul-26 02:10N 47°27' W 171°34'1 1.2 1025.4 9.5
2015-Jul-26 01:10N 47°27' W 171°35'1 1.1 1025.6 9.5
2015-Jul-26 00:10N 47°26' W 171°34'2 1.2 1025.9 9.5
2015-Jul-25 22:10N 47°28' W 171°36'1 0.5 1026.6 9.5
2015-Jul-25 20:10N 47°28' W 171°37'2 0.2 1027.2 9.4
2015-Jul-25 09:10N 47°27' W 171°40'0 0.1 1029.1 9.5
2015-Jul-25 08:10N 47°27' W 171°40'0 0.3 1028.9 9.5
2015-Jul-25 07:10N 47°27' W 171°39'1 0.6 1028.9 9.5
2015-Jul-25 06:10N 47°27' W 171°39'2 0.8 1028.8 9.5
2015-Jul-25 04:10N 47°28' W 171°40'1 1.0 1029.3 9.5
2015-Jul-25 03:10N 47°29' W 171°40'1 0.9 1029.3 9.5
2015-Jul-25 02:10N 47°29' W 171°42'2 1.7 1029.7 9.5
2015-Jul-25 01:10N 47°27' W 171°42'1 0.1 1030.2 9.5
2015-Jul-24 16:10N 47°27' W 171°41'7 0.3 1028.6 9.2
2015-Jul-23 16:10N 47°26' W 171°51'1 0.6 1027.4 9.2
2015-Jul-23 15:10N 47°26' W 171°50'2 0.3 1027.5 9.2
2015-Jul-23 09:10N 47°26' W 171°53'1 0.2 1029.8 9.2
2015-Jul-23 06:10N 47°26' W 171°52'1 0.7 1028.7 9.3
2015-Jul-23 04:10N 47°27' W 171°54'0 0.3 1028.8 9.3
2015-Jul-23 03:10N 47°27' W 171°54'1 0.2 1028.8 9.2
2015-Jul-22 23:10N 47°26' W 171°54'0 0.0 1029.1 9.1
2015-Jul-22 22:10N 47°26' W 171°54'0 0.0 1029.1 9.1
2015-Jul-22 18:10N 47°26' W 171°54'1 1.1 1028.0 9.0
2015-Jul-22 17:10N 47°26' W 171°53'4 1.0 1027.8 9.0
2015-Jul-22 13:10N 47°28' W 171°58'0 0.0 1026.7 9.0
2015-Jul-22 08:10N 47°28' W 171°59'1 0.5 1025.5 9.1
2015-Jul-22 05:10N 47°26' W 171°58'   1023.1 9.1

Dump ship's entire track history